Terminal Aerodrome Forecast
Issued by NWS Paducah, KY

Home | Current Version | Previous Version | Text Only | Print | Product List | Glossary On
Versions: 1 2 3 4 5 6 7 8 9 10 11 12 13 14 15 16 17 18 19
000
FTUS43 KPAH 010843 AAB
TAFPAH
TAF AMD
KPAH 010843Z 0109/0206 20003KT 6SM BR SCT015 OVC040
      TEMPO 0109/0111 4SM BR BKN012
     FM011400 24005KT P6SM BKN025
     FM011800 24007KT P6SM BKN035
     FM020200 30005KT P6SM FEW150=

USA.gov is the U.S. government's official web portal to all federal, state and local government web resources and services.